Time;durP1;ratioP1;P1;durP2;ratioP2;P2;SDS_P1;SDS_P2;PMS_P1;PMS_P2;Temp;Humidity;BMP_temperature;BMP_pressure;BME280_temperature;BME280_humidity;BME280_pressure;Samples;Min_cycle;Max_cycle;Signal;HPM_P1;HPM_P2
2023/03/16 00:01:07;;;;;;;;;;;;;;;20.03;32.13;99931.13;103592;1311;61431;-82
2023/03/16 00:03:33;;;;;;;;;;;;;;;20.03;32.17;99932.54;103572;1315;61371;-83
2023/03/16 00:05:59;;;;;;;;;;;;;;;20.03;32.15;99935.95;103436;1312;61294;-81
2023/03/16 00:08:24;;;;;;;;;;;;;;;20.02;32.22;99937.23;103580;1311;61412;-81
2023/03/16 00:10:54;;;;;;;;;;;;;;;20.03;32.18;99935.95;103583;1310;61359;-82
2023/03/16 00:13:23;;;;;;;;;;;;;;;20.03;32.22;99935.39;103484;1311;61500;-82
2023/03/16 00:15:58;;;;;;;;;;;;;;;20.03;32.13;99935.42;103601;1310;73544;-81
2023/03/16 00:18:27;;;;;;;;;;;;;;;20.03;32.18;99935.05;103535;1311;75708;-82
2023/03/16 00:20:54;;;;;;;;;;;;;;;20.03;32.13;99935.93;103452;1311;61257;-82
2023/03/16 00:23:26;;;;;;;;;;;;;;;20.03;32.14;99938.77;103546;1311;61295;-82
2023/03/16 00:26:02;;;;;;;;;;;;;;;20.03;32.18;99943.06;103562;1311;72630;-82
2023/03/16 00:28:28;;;;;;;;;;;;;;;20.03;32.16;99939.67;103662;1311;73412;-82
2023/03/16 00:30:57;;;;;;;;;;;;;;;20.03;32.18;99944.10;103445;1310;61260;-82
2023/03/16 00:33:26;;;;;;;;;;;;;;;20.03;32.30;99940.05;103637;1311;61307;-82
2023/03/16 00:36:00;;;;;;;;;;;;;;;20.03;32.18;99937.34;103634;1314;72531;-82
2023/03/16 00:38:26;;;;;;;;;;;;;;;20.03;32.27;99933.25;103436;1315;75521;-82
2023/03/16 00:40:52;;;;;;;;;;;;;;;20.03;32.25;99930.38;103555;1310;61341;-83
2023/03/16 00:43:17;;;;;;;;;;;;;;;20.03;32.22;99926.27;103594;1311;61298;-82
2023/03/16 00:45:43;;;;;;;;;;;;;;;20.03;32.26;99924.99;103380;1316;61311;-83
2023/03/16 00:48:11;;;;;;;;;;;;;;;20.03;32.23;99922.67;103421;1311;61365;-82
2023/03/16 00:50:46;;;;;;;;;;;;;;;20.04;32.24;99922.83;103595;1309;61218;-82
2023/03/16 00:53:17;;;;;;;;;;;;;;;20.04;32.28;99915.50;103670;1308;61145;-82
2023/03/16 00:55:46;;;;;;;;;;;;;;;20.04;32.33;99921.39;103632;1308;73418;-82
2023/03/16 00:58:13;;;;;;;;;;;;;;;20.04;32.36;99923.55;103594;1309;61275;-82
2023/03/16 01:00:39;;;;;;;;;;;;;;;20.04;32.26;99929.73;103883;1308;61686;-82
2023/03/16 01:03:05;;;;;;;;;;;;;;;20.05;32.29;99933.10;103651;1311;61212;-81
2023/03/16 01:05:32;;;;;;;;;;;;;;;20.05;32.27;99937.39;103661;1308;61374;-82
2023/03/16 01:08:01;;;;;;;;;;;;;;;20.05;32.24;99945.61;103664;1309;61501;-82
2023/03/16 01:10:28;;;;;;;;;;;;;;;20.05;32.24;99951.33;103842;1308;61093;-81
2023/03/16 01:13:03;;;;;;;;;;;;;;;20.05;32.30;99947.58;103832;1308;61428;-82
2023/03/16 01:15:29;;;;;;;;;;;;;;;20.06;32.32;99955.36;103678;1308;61430;-82
2023/03/16 01:17:58;;;;;;;;;;;;;;;20.05;32.18;99963.06;103609;1314;61376;-82
2023/03/16 01:20:26;;;;;;;;;;;;;;;20.06;32.21;99971.73;103859;1309;61250;-81
2023/03/16 01:22:52;;;;;;;;;;;;;;;20.06;32.32;99978.69;103851;1309;61413;-82
2023/03/16 01:25:17;;;;;;;;;;;;;;;20.06;32.23;99983.34;103641;1309;61323;-82
2023/03/16 01:27:43;;;;;;;;;;;;;;;20.07;32.33;99986.73;103849;1313;61291;-81
2023/03/16 01:30:11;;;;;;;;;;;;;;;20.07;32.29;99991.73;103668;1308;61479;-81
2023/03/16 01:32:38;;;;;;;;;;;;;;;20.06;32.32;99993.92;103663;1309;61329;-82
2023/03/16 01:35:05;;;;;;;;;;;;;;;20.07;32.21;99997.63;103660;1308;61304;-82
2023/03/16 01:37:30;;;;;;;;;;;;;;;20.06;32.34;99996.03;103824;1308;61406;-82
2023/03/16 01:39:56;;;;;;;;;;;;;;;20.06;32.29;100003.23;103626;1308;61422;-83
2023/03/16 01:42:24;;;;;;;;;;;;;;;20.06;32.31;100001.79;103579;1308;62523;-81
2023/03/16 01:44:51;;;;;;;;;;;;;;;20.06;32.32;100003.59;103871;1308;61394;-81
2023/03/16 01:47:22;;;;;;;;;;;;;;;20.06;32.24;100006.42;103837;1308;61717;-81
2023/03/16 01:49:49;;;;;;;;;;;;;;;20.06;32.49;100006.45;103808;1308;61283;-81
2023/03/16 01:52:16;;;;;;;;;;;;;;;20.06;32.30;100007.70;103678;1309;61678;-82
2023/03/16 01:54:43;;;;;;;;;;;;;;;20.06;32.20;100014.30;103595;1313;72657;-81
2023/03/16 01:57:31;;;;;;;;;;;;;;;20.05;32.30;100015.21;103624;1311;74826;-81
2023/03/16 02:00:22;;;;;;;;;;;;;;;20.06;32.31;100019.80;103097;1315;61396;-82
2023/03/16 02:02:58;;;;;;;;;;;;;;;20.06;32.29;100016.63;102963;1317;61388;-83
2023/03/16 02:05:30;;;;;;;;;;;;;;;20.06;32.30;100020.67;103112;1314;72653;-82
2023/03/16 02:07:58;;;;;;;;;;;;;;;20.06;32.27;100023.36;103171;1315;73392;-82
2023/03/16 02:10:26;;;;;;;;;;;;;;;20.06;32.24;100027.45;103044;1315;61219;-83
2023/03/16 02:12:54;;;;;;;;;;;;;;;20.07;32.22;100030.83;103080;1315;61841;-82
2023/03/16 02:15:20;;;;;;;;;;;;;;;20.07;32.30;100031.69;102881;1315;73551;-82
2023/03/16 02:17:46;;;;;;;;;;;;;;;20.07;32.22;100037.23;102884;1315;61461;-82
2023/03/16 02:20:15;;;;;;;;;;;;;;;20.07;32.27;100035.98;103067;1314;61485;-82
2023/03/16 02:22:42;;;;;;;;;;;;;;;20.07;32.24;100037.78;103122;1315;61247;-82
2023/03/16 02:25:11;;;;;;;;;;;;;;;20.07;32.29;100044.36;103019;1316;72303;-82
2023/03/16 02:27:57;;;;;;;;;;;;;;;20.07;32.30;100048.32;103004;1315;75254;-82
2023/03/16 02:30:33;;;;;;;;;;;;;;;20.08;32.28;100052.91;103072;1315;61425;-82
2023/03/16 02:33:03;;;;;;;;;;;;;;;20.08;32.29;100053.80;103095;1318;61490;-82
2023/03/16 02:35:30;;;;;;;;;;;;;;;20.08;32.32;100059.16;103061;1314;73636;-81
2023/03/16 02:37:55;;;;;;;;;;;;;;;20.08;32.19;100061.61;103364;1308;61336;-81
2023/03/16 02:40:31;;;;;;;;;;;;;;;20.08;32.11;100059.50;103646;1308;61310;-83
2023/03/16 02:43:05;;;;;;;;;;;;;;;20.08;32.08;100057.02;103850;1308;61157;-82
2023/03/16 02:45:35;;;;;;;;;;;;;;;20.08;32.31;100057.55;103825;1313;72333;-82
2023/03/16 02:48:02;;;;;;;;;;;;;;;20.07;32.21;100057.77;103608;1308;74209;-82
2023/03/16 02:50:28;;;;;;;;;;;;;;;20.07;32.15;100058.65;103679;1308;61870;-82
2023/03/16 02:52:54;;;;;;;;;;;;;;;20.08;32.17;100061.46;103636;1308;61385;-82
2023/03/16 02:55:22;;;;;;;;;;;;;;;20.08;32.20;100061.46;103399;1308;73622;-82
2023/03/16 02:57:48;;;;;;;;;;;;;;;20.07;32.18;100062.76;103822;1309;61348;-82
2023/03/16 03:00:37;;;;;;;;;;;;;;;20.07;32.05;100064.37;103653;1308;61375;-82
2023/03/16 03:03:04;;;;;;;;;;;;;;;20.08;32.14;100075.23;103045;1317;61202;-81
2023/03/16 03:05:33;;;;;;;;;;;;;;;20.07;32.11;100075.83;103068;1317;61445;-82
2023/03/16 03:07:58;;;;;;;;;;;;;;;20.07;32.09;100072.03;102897;1317;74770;-82
2023/03/16 03:10:24;;;;;;;;;;;;;;;20.07;32.15;100071.13;103026;1317;61325;-81
2023/03/16 03:12:50;;;;;;;;;;;;;;;20.07;32.00;100067.61;103064;1318;61476;-81
2023/03/16 03:15:17;;;;;;;;;;;;;;;20.07;31.97;100069.02;102998;1317;61305;-82
2023/03/16 03:17:42;;;;;;;;;;;;;;;20.07;32.04;100075.63;103002;1318;61397;-81
2023/03/16 03:20:15;;;;;;;;;;;;;;;20.07;32.05;100081.19;102996;1316;60322;-81
2023/03/16 03:22:40;;;;;;;;;;;;;;;20.07;31.99;100084.38;103015;1316;61349;-81
2023/03/16 03:25:07;;;;;;;;;;;;;;;20.07;32.00;100090.31;102970;1317;61600;-81
2023/03/16 03:27:36;;;;;;;;;;;;;;;20.07;31.93;100089.94;102887;1320;74661;-82
2023/03/16 03:30:04;;;;;;;;;;;;;;;20.07;31.93;100095.10;102986;1316;61340;-81
2023/03/16 03:32:33;;;;;;;;;;;;;;;20.07;31.94;100095.80;102958;1317;61480;-82
2023/03/16 03:34:58;;;;;;;;;;;;;;;20.07;31.84;100101.00;102929;1318;72938;-83
2023/03/16 03:37:24;;;;;;;;;;;;;;;20.07;31.89;100100.83;102803;1317;61346;-82
2023/03/16 03:39:52;;;;;;;;;;;;;;;20.07;31.89;100103.52;102973;1312;62571;-82
2023/03/16 03:42:22;;;;;;;;;;;;;;;20.07;31.93;100106.57;103435;1311;61308;-82
2023/03/16 03:44:50;;;;;;;;;;;;;;;20.07;31.91;100107.11;103357;1310;73431;-83
2023/03/16 03:47:16;;;;;;;;;;;;;;;20.07;31.92;100108.71;103594;1312;74440;-82
2023/03/16 03:49:41;;;;;;;;;;;;;;;20.06;31.78;100111.61;103397;1312;61278;-82
2023/03/16 03:52:07;;;;;;;;;;;;;;;20.06;31.79;100112.33;103407;1312;61222;-82
2023/03/16 03:54:33;;;;;;;;;;;;;;;20.06;31.71;100118.76;103446;1314;61604;-82
2023/03/16 03:56:58;;;;;;;;;;;;;;;20.06;31.79;100123.80;103429;1311;61313;-81
2023/03/16 03:59:24;;;;;;;;;;;;;;;20.06;31.74;100124.70;103399;1316;61209;-83
2023/03/16 04:01:52;;;;;;;;;;;;;;;20.06;31.69;100124.50;103412;1312;61160;-83
2023/03/16 04:04:18;;;;;;;;;;;;;;;20.06;31.79;100116.27;103721;1308;61190;-82
2023/03/16 04:06:44;;;;;;;;;;;;;;;20.06;31.67;100120.04;103557;1308;61411;-82
2023/03/16 04:09:18;;;;;;;;;;;;;;;20.05;31.66;100128.11;103660;1310;76839;-82
2023/03/16 04:11:44;;;;;;;;;;;;;;;20.06;31.48;100133.10;103628;1308;61409;-81
2023/03/16 04:14:11;;;;;;;;;;;;;;;20.06;31.55;100138.97;103642;1309;61329;-82
2023/03/16 04:16:39;;;;;;;;;;;;;;;20.06;31.68;100139.70;103599;1311;73388;-82
2023/03/16 04:19:05;;;;;;;;;;;;;;;20.06;31.59;100145.91;103813;1308;61218;-83
2023/03/16 04:21:31;;;;;;;;;;;;;;;20.06;31.67;100147.73;103661;1308;61259;-82
2023/03/16 04:23:56;;;;;;;;;;;;;;;20.06;31.62;100151.27;103674;1309;61303;-83
2023/03/16 04:26:24;;;;;;;;;;;;;;;20.06;31.57;100154.65;103635;1308;61248;-81
2023/03/16 04:28:51;;;;;;;;;;;;;;;20.06;31.51;100154.12;103602;1308;61426;-81
2023/03/16 04:31:17;;;;;;;;;;;;;;;20.06;31.52;100157.16;103675;1309;61332;-81
2023/03/16 04:33:43;;;;;;;;;;;;;;;20.06;31.53;100158.27;103618;1308;61186;-81
2023/03/16 04:36:10;;;;;;;;;;;;;;;20.05;31.48;100160.96;103465;1311;61317;-81
2023/03/16 04:38:40;;;;;;;;;;;;;;;20.05;31.46;100161.53;103764;1312;75321;-81
2023/03/16 04:41:10;;;;;;;;;;;;;;;20.06;31.48;100167.00;103671;1309;61351;-81
2023/03/16 04:43:36;;;;;;;;;;;;;;;20.06;31.47;100173.80;103867;1309;61388;-81
2023/03/16 04:46:06;;;;;;;;;;;;;;;20.06;31.36;100174.69;103681;1312;61353;-81
2023/03/16 04:48:33;;;;;;;;;;;;;;;20.06;31.37;100179.54;103635;1309;75579;-81
2023/03/16 04:50:59;;;;;;;;;;;;;;;20.05;31.44;100178.68;103870;1309;61289;-81
2023/03/16 04:53:26;;;;;;;;;;;;;;;20.04;31.45;100184.83;103639;1309;61157;-82
2023/03/16 04:55:52;;;;;;;;;;;;;;;20.04;31.30;100187.55;103643;1308;61290;-82
2023/03/16 04:58:18;;;;;;;;;;;;;;;20.04;31.29;100188.24;103594;1311;61444;-82
2023/03/16 05:00:44;;;;;;;;;;;;;;;20.03;31.29;100193.81;103691;1308;61279;-81
2023/03/16 05:03:10;;;;;;;;;;;;;;;20.04;31.33;100192.91;103815;1308;61198;-81
2023/03/16 05:05:38;;;;;;;;;;;;;;;20.04;31.39;100194.85;103844;1308;61387;-81
2023/03/16 05:08:05;;;;;;;;;;;;;;;20.04;31.32;100195.38;103692;1308;61321;-82
2023/03/16 05:10:30;;;;;;;;;;;;;;;20.04;31.33;100199.13;103681;1308;61199;-83
2023/03/16 05:12:56;;;;;;;;;;;;;;;20.03;31.35;100209.41;103837;1308;61307;-82
2023/03/16 05:15:22;;;;;;;;;;;;;;;20.02;31.29;100208.73;103652;1308;61304;-82
2023/03/16 05:17:47;;;;;;;;;;;;;;;20.02;31.22;100215.90;103847;1308;61330;-83
2023/03/16 05:20:21;;;;;;;;;;;;;;;20.02;31.28;100220.00;103648;1308;61183;-82
2023/03/16 05:22:50;;;;;;;;;;;;;;;20.03;31.21;100226.88;103674;1308;61321;-82
2023/03/16 05:25:18;;;;;;;;;;;;;;;20.03;30.89;100231.52;103627;1308;61348;-82
2023/03/16 05:27:45;;;;;;;;;;;;;;;20.05;31.07;100231.06;103727;1309;75493;-82
2023/03/16 05:30:11;;;;;;;;;;;;;;;20.06;31.07;100232.55;103515;1308;61215;-82
2023/03/16 05:32:36;;;;;;;;;;;;;;;20.07;30.97;100235.85;103353;1314;61345;-83
2023/03/16 05:35:02;;;;;;;;;;;;;;;20.09;30.95;100240.70;103388;1311;61316;-82
2023/03/16 05:37:28;;;;;;;;;;;;;;;20.09;30.95;100240.52;103363;1311;61313;-82
2023/03/16 05:39:56;;;;;;;;;;;;;;;20.10;31.07;100251.70;103376;1311;61346;-82
2023/03/16 05:42:22;;;;;;;;;;;;;;;20.08;30.98;100250.27;103267;1311;61366;-82
2023/03/16 05:44:47;;;;;;;;;;;;;;;20.01;30.86;100255.61;103307;1312;61467;-81
2023/03/16 05:47:13;;;;;;;;;;;;;;;19.89;30.81;100259.18;103217;1313;61521;-81
2023/03/16 05:49:39;;;;;;;;;;;;;;;19.39;30.47;100267.64;103231;1311;61569;-81
2023/03/16 05:52:04;;;;;;;;;;;;;;;18.97;30.69;100271.19;103302;1311;61380;-81
2023/03/16 05:54:30;;;;;;;;;;;;;;;18.80;30.82;100277.52;103283;1311;59560;-81
2023/03/16 05:56:55;;;;;;;;;;;;;;;18.67;30.84;100285.51;103080;1311;61333;-81
2023/03/16 05:59:21;;;;;;;;;;;;;;;18.48;30.92;100287.02;103374;1314;62860;-81
2023/03/16 06:01:49;;;;;;;;;;;;;;;18.30;30.72;100292.45;103169;1312;61305;-81
2023/03/16 06:04:15;;;;;;;;;;;;;;;18.22;31.04;100294.26;103484;1308;61272;-80
2023/03/16 06:06:41;;;;;;;;;;;;;;;18.21;31.04;100294.83;103524;1308;59471;-81
2023/03/16 06:09:08;;;;;;;;;;;;;;;18.32;31.18;100294.30;103531;1308;61466;-81
2023/03/16 06:11:34;;;;;;;;;;;;;;;18.42;31.15;100293.27;103652;1313;61306;-81
2023/03/16 06:14:00;;;;;;;;;;;;;;;18.51;31.17;100294.48;103602;1308;61265;-81
2023/03/16 06:16:26;;;;;;;;;;;;;;;18.56;31.02;100295.92;103453;1312;61349;-81
2023/03/16 06:18:51;;;;;;;;;;;;;;;18.57;31.03;100298.28;103666;1309;61355;-80
2023/03/16 06:21:17;;;;;;;;;;;;;;;18.63;30.95;100300.25;103271;1308;75323;-81
2023/03/16 06:23:42;;;;;;;;;;;;;;;18.72;30.93;100301.27;103476;1308;61400;-80
2023/03/16 06:26:08;;;;;;;;;;;;;;;18.83;30.84;100305.09;103567;1308;60257;-79
2023/03/16 06:28:34;;;;;;;;;;;;;;;18.95;30.95;100309.80;103672;1308;59295;-80
2023/03/16 06:30:59;;;;;;;;;;;;;;;19.07;30.86;100318.43;103646;1308;61177;-80
2023/03/16 06:33:25;;;;;;;;;;;;;;;19.18;30.77;100312.30;104103;1309;74398;-79
2023/03/16 06:35:51;;;;;;;;;;;;;;;19.29;30.75;100320.45;103214;1312;61288;-79
2023/03/16 06:38:17;;;;;;;;;;;;;;;19.39;30.67;100322.05;103274;1308;61381;-80
2023/03/16 06:40:43;;;;;;;;;;;;;;;19.48;30.70;100328.36;103323;1309;61307;-79
2023/03/16 06:43:08;;;;;;;;;;;;;;;19.56;30.65;100332.09;103445;1308;61317;-81
2023/03/16 06:45:34;;;;;;;;;;;;;;;19.63;30.57;100330.90;103335;1308;61314;-81
2023/03/16 06:48:00;;;;;;;;;;;;;;;19.70;30.60;100328.10;103231;1311;61352;-80
2023/03/16 06:50:25;;;;;;;;;;;;;;;19.74;30.46;100329.88;103451;1310;61315;-80
2023/03/16 06:52:51;;;;;;;;;;;;;;;19.80;30.51;100338.23;103335;1314;61429;-80
2023/03/16 06:55:16;;;;;;;;;;;;;;;19.84;30.50;100343.52;103518;1308;61326;-82
2023/03/16 06:57:42;;;;;;;;;;;;;;;19.81;30.43;100342.45;103637;1308;61406;-80
2023/03/16 07:00:08;;;;;;;;;;;;;;;19.81;30.49;100344.79;103650;1308;61154;-80
2023/03/16 07:02:34;;;;;;;;;;;;;;;19.83;30.54;100346.05;103018;1308;636398;-80
2023/03/16 07:05:00;;;;;;;;;;;;;;;19.86;30.64;100351.40;103546;1314;59469;-80
2023/03/16 07:07:26;;;;;;;;;;;;;;;19.87;30.78;100354.36;103674;1313;61481;-79
2023/03/16 07:09:52;;;;;;;;;;;;;;;19.90;30.80;100358.59;103500;1308;61393;-80
2023/03/16 07:12:18;;;;;;;;;;;;;;;19.95;30.78;100365.70;103473;1308;61312;-80
2023/03/16 07:14:43;;;;;;;;;;;;;;;19.99;30.89;100365.95;103706;1308;61308;-80
2023/03/16 07:17:09;;;;;;;;;;;;;;;20.03;30.78;100367.83;103573;1309;62208;-80
2023/03/16 07:19:34;;;;;;;;;;;;;;;20.06;30.82;100373.12;103568;1308;74636;-80
2023/03/16 07:22:01;;;;;;;;;;;;;;;20.11;30.75;100375.64;103534;1308;61273;-80
2023/03/16 07:24:27;;;;;;;;;;;;;;;20.15;30.86;100382.34;103487;1309;61468;-80
2023/03/16 07:26:53;;;;;;;;;;;;;;;20.18;30.79;100385.16;103426;1308;61390;-81
2023/03/16 07:29:19;;;;;;;;;;;;;;;20.20;31.00;100388.34;103407;1308;60882;-80
2023/03/16 07:31:45;;;;;;;;;;;;;;;20.24;30.91;100395.08;103467;1308;61426;-80
2023/03/16 07:34:10;;;;;;;;;;;;;;;20.27;30.91;100396.65;103478;1308;61298;-80
2023/03/16 07:36:36;;;;;;;;;;;;;;;20.29;30.94;100402.25;103626;1311;59478;-80
2023/03/16 07:39:02;;;;;;;;;;;;;;;20.31;30.96;100402.95;103462;1308;74259;-80
2023/03/16 07:41:27;;;;;;;;;;;;;;;20.32;31.11;100406.44;103519;1309;61388;-80
2023/03/16 07:43:53;;;;;;;;;;;;;;;20.34;30.99;100405.90;103468;1308;61426;-80
2023/03/16 07:46:18;;;;;;;;;;;;;;;20.35;31.17;100409.77;103615;1308;61301;-80
2023/03/16 07:48:44;;;;;;;;;;;;;;;20.36;31.20;100412.76;103680;1309;61295;-81
2023/03/16 07:51:10;;;;;;;;;;;;;;;20.38;31.23;100415.11;103529;1308;61438;-80
2023/03/16 07:53:36;;;;;;;;;;;;;;;20.39;31.20;100420.91;103546;1308;75562;-80
2023/03/16 07:56:01;;;;;;;;;;;;;;;20.37;31.20;100424.48;103520;1312;61413;-80
2023/03/16 07:58:28;;;;;;;;;;;;;;;20.33;31.19;100427.85;103545;1308;61351;-80
2023/03/16 08:01:00;;;;;;;;;;;;;;;20.27;31.29;100434.73;103525;1308;61412;-81
2023/03/16 08:03:26;;;;;;;;;;;;;;;20.13;31.27;100434.63;103495;1308;75540;-81
2023/03/16 08:05:52;;;;;;;;;;;;;;;19.85;31.03;100436.46;103639;1309;59586;-82
2023/03/16 08:08:17;;;;;;;;;;;;;;;19.68;31.32;100439.80;103436;1308;61612;-81
2023/03/16 08:10:43;;;;;;;;;;;;;;;19.52;31.40;100440.37;103477;1314;60186;-82
2023/03/16 08:13:09;;;;;;;;;;;;;;;19.37;31.44;100442.30;103575;1310;60244;-80
2023/03/16 08:15:35;;;;;;;;;;;;;;;19.32;31.67;100444.30;103287;1311;61374;-80
2023/03/16 08:18:03;;;;;;;;;;;;;;;19.36;31.79;100445.44;103495;1308;59314;-80
2023/03/16 08:20:29;;;;;;;;;;;;;;;19.43;31.71;100449.77;103450;1308;61245;-80
2023/03/16 08:22:55;;;;;;;;;;;;;;;19.50;31.66;100452.98;103291;1311;61293;-79
2023/03/16 08:25:21;;;;;;;;;;;;;;;19.58;31.64;100456.75;103322;1313;61522;-80
2023/03/16 08:27:48;;;;;;;;;;;;;;;19.65;31.60;100458.23;103324;1308;62563;-80
2023/03/16 08:30:14;;;;;;;;;;;;;;;19.72;31.72;100460.89;103540;1311;61179;-81
2023/03/16 08:32:39;;;;;;;;;;;;;;;19.79;31.75;100463.11;103464;1309;62572;-80
2023/03/16 08:35:09;;;;;;;;;;;;;;;19.85;31.90;100466.13;103615;1311;61372;-80
2023/03/16 08:37:34;;;;;;;;;;;;;;;19.91;31.96;100472.13;103530;1309;61211;-80
2023/03/16 08:39:59;;;;;;;;;;;;;;;19.96;31.83;100475.85;103617;1312;61295;-80
2023/03/16 08:42:27;;;;;;;;;;;;;;;20.01;31.86;100480.71;103507;1311;60045;-80
2023/03/16 08:44:54;;;;;;;;;;;;;;;20.05;31.83;100483.61;103596;1309;63523;-81
2023/03/16 08:47:23;;;;;;;;;;;;;;;20.08;31.98;100485.69;103844;1311;61862;-80
2023/03/16 08:49:49;;;;;;;;;;;;;;;20.12;31.81;100491.33;103561;1311;61289;-80
2023/03/16 08:52:15;;;;;;;;;;;;;;;20.15;31.83;100488.83;103641;1308;59939;-81
2023/03/16 08:54:41;;;;;;;;;;;;;;;20.17;32.02;100492.94;103477;1310;61310;-81
2023/03/16 08:57:06;;;;;;;;;;;;;;;20.19;31.94;100494.02;103463;1308;61314;-79
2023/03/16 08:59:32;;;;;;;;;;;;;;;20.22;31.94;100495.80;103113;1308;61948;-80
2023/03/16 09:01:57;;;;;;;;;;;;;;;20.23;31.92;100496.59;103235;1308;61346;-81
2023/03/16 09:04:23;;;;;;;;;;;;;;;20.22;31.92;100504.20;102993;1310;73515;-80
2023/03/16 09:06:52;;;;;;;;;;;;;;;20.02;31.61;100507.94;102828;1308;61330;-80
2023/03/16 09:09:18;;;;;;;;;;;;;;;19.76;31.79;100511.55;102679;1311;61500;-80
2023/03/16 09:11:44;;;;;;;;;;;;;;;19.72;32.03;100510.54;103684;1308;59449;-80
2023/03/16 09:14:13;;;;;;;;;;;;;;;19.73;32.08;100514.73;103726;1308;61053;-80
2023/03/16 09:16:39;;;;;;;;;;;;;;;19.75;32.15;100517.81;103348;1309;76802;-80
2023/03/16 09:19:06;;;;;;;;;;;;;;;19.79;32.26;100517.92;103662;1308;59637;-80
2023/03/16 09:21:33;;;;;;;;;;;;;;;19.84;32.23;100521.52;103924;1309;59498;-80
2023/03/16 09:23:59;;;;;;;;;;;;;;;19.89;32.27;100518.33;103385;1309;73100;-80
2023/03/16 09:26:27;;;;;;;;;;;;;;;19.95;32.29;100523.28;103521;1311;61288;-80
2023/03/16 09:28:53;;;;;;;;;;;;;;;19.99;32.26;100527.09;103766;1309;61297;-80
2023/03/16 09:31:18;;;;;;;;;;;;;;;20.03;32.32;100529.98;103444;1309;61484;-80
2023/03/16 09:33:45;;;;;;;;;;;;;;;20.07;32.35;100529.38;103713;1308;61009;-80
2023/03/16 09:36:10;;;;;;;;;;;;;;;20.10;32.15;100535.42;103670;1308;59402;-80
2023/03/16 09:38:37;;;;;;;;;;;;;;;20.14;32.27;100539.84;103553;1309;61485;-80
2023/03/16 09:41:07;;;;;;;;;;;;;;;20.16;32.13;100541.09;103660;1308;61424;-80
2023/03/16 09:43:36;;;;;;;;;;;;;;;20.17;32.06;100543.13;104498;1308;73367;-80
2023/03/16 09:46:14;;;;;;;;;;;;;;;20.20;32.28;100546.16;103641;1308;75492;-80
2023/03/16 09:48:40;;;;;;;;;;;;;;;20.22;32.17;100548.16;104508;1308;60092;-81
2023/03/16 09:51:17;;;;;;;;;;;;;;;20.24;32.16;100553.16;104381;1308;59737;-80
2023/03/16 09:53:43;;;;;;;;;;;;;;;20.27;32.25;100558.02;104369;1311;74275;-81
2023/03/16 09:56:14;;;;;;;;;;;;;;;20.29;32.36;100561.09;103729;1309;61313;-82
2023/03/16 09:58:40;;;;;;;;;;;;;;;20.31;32.33;100558.27;103336;1309;61308;-81
2023/03/16 10:01:25;;;;;;;;;;;;;;;20.32;32.17;100561.92;103549;1308;60081;-81
2023/03/16 10:04:02;;;;;;;;;;;;;;;20.22;32.33;100563.67;103578;1309;72173;-82
2023/03/16 10:06:28;;;;;;;;;;;;;;;20.02;32.25;100573.16;103539;1308;74362;-81
2023/03/16 10:09:01;;;;;;;;;;;;;;;19.73;32.36;100577.86;102797;1308;61377;-81
2023/03/16 10:11:40;;;;;;;;;;;;;;;19.47;32.64;100578.34;103609;1308;63675;-81
2023/03/16 10:14:16;;;;;;;;;;;;;;;19.38;32.90;100584.11;103484;1308;73513;-80
2023/03/16 10:16:46;;;;;;;;;;;;;;;19.38;32.93;100583.55;103620;1313;76457;-80
2023/03/16 10:19:19;;;;;;;;;;;;;;;19.44;33.16;100584.56;103722;1308;61357;-80
2023/03/16 10:21:46;;;;;;;;;;;;;;;19.50;33.05;100587.38;104027;1308;60262;-81
2023/03/16 10:24:35;;;;;;;;;;;;;;;19.57;33.24;100583.35;103472;1308;72657;-81
2023/03/16 10:27:01;;;;;;;;;;;;;;;19.65;33.19;100586.92;104098;1309;74805;-81
2023/03/16 10:29:28;;;;;;;;;;;;;;;19.70;33.21;100589.97;103754;1309;62294;-80
2023/03/16 10:31:54;;;;;;;;;;;;;;;19.75;33.37;100587.27;103571;1309;59805;-80
2023/03/16 10:34:20;;;;;;;;;;;;;;;19.80;33.30;100583.56;102890;1308;61442;-79
2023/03/16 10:36:46;;;;;;;;;;;;;;;19.86;33.41;100584.44;103356;1308;61362;-80
2023/03/16 10:39:12;;;;;;;;;;;;;;;19.93;33.40;100584.67;104378;1308;59502;-80
2023/03/16 10:41:39;;;;;;;;;;;;;;;19.98;33.50;100585.42;104340;1308;59737;-80
2023/03/16 10:44:07;;;;;;;;;;;;;;;20.01;33.59;100587.70;104283;1311;59668;-81
2023/03/16 10:46:40;;;;;;;;;;;;;;;20.04;33.59;100585.00;103657;1308;75641;-80
2023/03/16 10:49:16;;;;;;;;;;;;;;;20.08;33.49;100582.41;103687;1308;61570;-80
2023/03/16 10:51:42;;;;;;;;;;;;;;;20.09;33.54;100584.45;103431;1308;61180;-80
2023/03/16 10:54:14;;;;;;;;;;;;;;;20.10;33.57;100588.83;103425;1308;61225;-80
2023/03/16 10:56:39;;;;;;;;;;;;;;;20.09;33.34;100587.83;103621;1308;74851;-80
2023/03/16 10:59:11;;;;;;;;;;;;;;;20.07;33.44;100589.39;103541;1308;59750;-81
2023/03/16 11:01:37;;;;;;;;;;;;;;;20.06;33.51;100588.89;103229;1309;61196;-81
2023/03/16 11:04:10;;;;;;;;;;;;;;;19.92;33.36;100590.82;103706;1309;59968;-82
2023/03/16 11:06:37;;;;;;;;;;;;;;;19.65;33.37;100591.55;103390;1309;74725;-80
2023/03/16 11:09:07;;;;;;;;;;;;;;;19.53;33.68;100592.34;103632;1308;63515;-80
2023/03/16 11:11:33;;;;;;;;;;;;;;;19.51;33.72;100591.05;104165;1308;60321;-81
2023/03/16 11:13:59;;;;;;;;;;;;;;;19.54;33.83;100591.26;104173;1314;60300;-81
2023/03/16 11:16:31;;;;;;;;;;;;;;;19.57;33.99;100594.39;104239;1308;60085;-81
2023/03/16 11:18:58;;;;;;;;;;;;;;;19.56;34.03;100595.56;104222;1308;60598;-80
2023/03/16 11:21:25;;;;;;;;;;;;;;;19.52;34.19;100593.19;103827;1308;59612;-80
2023/03/16 11:23:51;;;;;;;;;;;;;;;19.56;34.11;100590.94;103174;1308;72623;-80
2023/03/16 11:26:26;;;;;;;;;;;;;;;19.61;34.03;100594.50;104073;1309;74374;-80
2023/03/16 11:28:55;;;;;;;;;;;;;;;19.68;34.20;100593.16;103573;1309;61198;-80
2023/03/16 11:31:41;;;;;;;;;;;;;;;19.72;34.17;100590.55;103350;1308;61391;-82
2023/03/16 11:34:12;;;;;;;;;;;;;;;19.78;34.32;100592.45;103660;1308;74047;-82
2023/03/16 11:36:48;;;;;;;;;;;;;;;19.83;34.24;100595.71;104628;1308;75645;-80
2023/03/16 11:39:13;;;;;;;;;;;;;;;19.85;34.18;100594.50;104202;1308;60325;-80
2023/03/16 11:41:55;;;;;;;;;;;;;;;19.84;34.09;100589.55;103729;1308;61365;-80
2023/03/16 11:44:24;;;;;;;;;;;;;;;19.82;34.00;100588.61;103734;1308;73328;-83
2023/03/16 11:46:53;;;;;;;;;;;;;;;19.81;33.96;100585.69;103529;1308;75640;-82
2023/03/16 11:49:34;;;;;;;;;;;;;;;19.82;34.02;100586.52;103607;1310;61250;-82
2023/03/16 11:52:04;;;;;;;;;;;;;;;19.84;33.98;100589.94;103611;1308;61249;-82
2023/03/16 11:54:42;;;;;;;;;;;;;;;19.85;33.98;100595.22;103399;1308;74452;-82
2023/03/16 11:57:25;;;;;;;;;;;;;;;19.87;33.99;100596.48;103259;1314;74264;-82
2023/03/16 12:00:17;;;;;;;;;;;;;;;19.86;33.78;100596.58;104296;1308;60848;-80
2023/03/16 12:02:49;;;;;;;;;;;;;;;19.85;33.85;100599.85;103127;1314;62370;-82
2023/03/16 12:05:33;;;;;;;;;;;;;;;19.81;33.85;100599.44;103107;1315;72405;-81
2023/03/16 12:08:17;;;;;;;;;;;;;;;19.73;33.84;100599.77;103108;1317;75424;-81
2023/03/16 12:10:49;;;;;;;;;;;;;;;19.65;33.82;100601.89;102849;1315;59864;-81
2023/03/16 12:13:29;;;;;;;;;;;;;;;19.52;33.91;100599.20;103094;1317;60235;-81
2023/03/16 12:15:58;;;;;;;;;;;;;;;19.52;34.00;100597.48;103680;1315;72476;-81
2023/03/16 12:18:30;;;;;;;;;;;;;;;19.55;34.03;100601.54;103034;1314;74331;-81
2023/03/16 12:21:03;;;;;;;;;;;;;;;19.58;33.98;100602.52;103047;1316;61209;-81
2023/03/16 12:23:35;;;;;;;;;;;;;;;19.63;33.97;100603.88;102850;1317;61475;-81
2023/03/16 12:26:02;;;;;;;;;;;;;;;19.68;34.09;100607.27;102876;1316;73479;-81
2023/03/16 12:28:28;;;;;;;;;;;;;;;19.72;33.95;100608.58;102888;1314;75237;-80
2023/03/16 12:31:12;;;;;;;;;;;;;;;19.76;33.90;100608.46;103005;1315;61431;-81
2023/03/16 12:33:43;;;;;;;;;;;;;;;19.80;33.95;100610.38;102952;1317;61330;-80